createdAt,value
2023-01-22T00:00:09.221Z,4.74
2023-01-22T00:02:41.944Z,4.33
2023-01-22T00:05:09.859Z,4.89
2023-01-22T00:07:36.523Z,5.00
2023-01-22T00:10:03.472Z,4.72
2023-01-22T00:12:30.126Z,4.81
2023-01-22T00:14:56.833Z,4.92
2023-01-22T00:17:23.692Z,4.83
2023-01-22T00:19:50.630Z,4.78
2023-01-22T00:22:17.382Z,4.82
2023-01-22T00:24:44.277Z,4.93
2023-01-22T00:27:11.094Z,4.87
2023-01-22T00:29:37.931Z,4.81
2023-01-22T00:32:05.204Z,4.98
2023-01-22T00:34:32.090Z,4.74
2023-01-22T00:36:58.951Z,4.63
2023-01-22T00:39:25.679Z,4.87
2023-01-22T00:41:52.570Z,4.89
2023-01-22T00:44:19.416Z,4.61
2023-01-22T00:46:46.715Z,4.70
2023-01-22T00:49:13.729Z,4.50
2023-01-22T00:51:40.609Z,4.47
2023-01-22T00:54:08.873Z,4.65
2023-01-22T00:56:35.692Z,4.75
2023-01-22T00:59:10.142Z,4.69
2023-01-22T01:01:38.758Z,4.73
2023-01-22T01:04:05.832Z,4.74
2023-01-22T01:06:33.231Z,4.78
2023-01-22T01:09:00.196Z,4.66
2023-01-22T01:11:27.712Z,4.87
2023-01-22T01:13:55.763Z,4.55
2023-01-22T01:16:26.726Z,5.02
2023-01-22T01:18:53.832Z,4.77
2023-01-22T01:21:20.546Z,4.72
2023-01-22T01:23:48.551Z,4.77
2023-01-22T01:26:16.387Z,4.74
2023-01-22T01:28:45.476Z,4.94
2023-01-22T01:31:14.713Z,5.01
2023-01-22T01:33:41.972Z,4.92
2023-01-22T01:36:15.220Z,4.67
2023-01-22T01:38:42.322Z,4.75
2023-01-22T01:41:12.713Z,4.92
2023-01-22T01:43:39.624Z,4.77
2023-01-22T01:46:14.688Z,4.61
2023-01-22T01:48:44.285Z,4.83
2023-01-22T01:51:15.787Z,4.79
2023-01-22T01:53:45.037Z,4.79
2023-01-22T01:56:19.053Z,4.83
2023-01-22T01:58:47.152Z,4.73
2023-01-22T02:01:16.776Z,4.58
2023-01-22T02:03:44.560Z,4.57
2023-01-22T02:06:12.784Z,4.87
2023-01-22T02:08:41.150Z,4.48
2023-01-22T02:11:08.517Z,4.82
2023-01-22T02:13:36.583Z,4.52
2023-01-22T02:16:04.172Z,4.66
2023-01-22T02:18:31.093Z,4.72
2023-01-22T02:21:00.267Z,4.45
2023-01-22T02:23:28.672Z,4.82
2023-01-22T02:25:56.009Z,5.03
2023-01-22T02:28:23.107Z,4.90
2023-01-22T02:30:51.165Z,4.90
2023-01-22T02:33:18.340Z,5.02
2023-01-22T02:35:45.143Z,4.88
2023-01-22T02:38:11.944Z,4.92
2023-01-22T02:40:49.213Z,4.82
2023-01-22T02:43:19.341Z,5.05
2023-01-22T02:45:46.338Z,4.69
2023-01-22T02:48:13.422Z,4.79
2023-01-22T02:50:40.181Z,4.94
2023-01-22T02:53:07.626Z,4.92
2023-01-22T02:55:34.498Z,4.63
2023-01-22T02:58:01.330Z,5.16
2023-01-22T03:00:28.166Z,5.02
2023-01-22T03:02:55.404Z,4.82
2023-01-22T03:05:22.315Z,4.55
2023-01-22T03:07:49.035Z,4.52
2023-01-22T03:10:18.949Z,4.27
2023-01-22T03:13:06.111Z,4.70
2023-01-22T03:15:51.863Z,4.42
2023-01-22T03:18:37.987Z,4.13
2023-01-22T03:21:16.986Z,4.46
2023-01-22T03:23:49.544Z,4.42
2023-01-22T03:26:19.370Z,4.69
2023-01-22T03:28:47.295Z,4.84
2023-01-22T03:31:15.360Z,4.97
2023-01-22T03:33:42.832Z,5.20
2023-01-22T03:36:13.375Z,5.26
2023-01-22T03:38:45.564Z,5.54
2023-01-22T03:41:17.420Z,5.53
2023-01-22T03:43:46.141Z,5.53
2023-01-22T03:46:18.835Z,5.48
2023-01-22T03:48:52.349Z,5.18
2023-01-22T03:51:20.785Z,5.28
2023-01-22T03:53:48.308Z,4.97
2023-01-22T03:56:17.435Z,4.86
2023-01-22T03:58:44.578Z,5.09
2023-01-22T04:01:14.311Z,5.21
2023-01-22T04:03:41.410Z,5.19
2023-01-22T04:06:10.722Z,5.32
2023-01-22T04:08:40.166Z,5.50
2023-01-22T04:11:07.197Z,5.08
2023-01-22T04:13:35.174Z,5.20
2023-01-22T04:16:05.236Z,5.45
2023-01-22T04:18:50.926Z,5.49
2023-01-22T04:21:27.090Z,5.34
2023-01-22T04:23:56.775Z,5.29
2023-01-22T04:26:23.608Z,5.68
2023-01-22T04:28:50.402Z,5.42
2023-01-22T04:31:20.264Z,5.64
2023-01-22T04:34:19.473Z,5.18
2023-01-22T04:36:52.690Z,5.26
2023-01-22T04:39:20.681Z,5.18
2023-01-22T04:41:47.891Z,5.32
2023-01-22T04:44:14.699Z,5.37
2023-01-22T04:46:42.185Z,5.16
2023-01-22T04:49:09.117Z,4.62
2023-01-22T04:51:36.509Z,5.24
2023-01-22T04:54:04.022Z,5.54
2023-01-22T04:56:31.002Z,5.42
2023-01-22T04:58:58.329Z,5.32
2023-01-22T05:01:25.924Z,5.41
2023-01-22T05:03:52.989Z,5.36
2023-01-22T05:06:20.218Z,5.14
2023-01-22T05:08:46.917Z,5.23
2023-01-22T05:11:13.969Z,5.24
2023-01-22T05:13:51.260Z,4.89
2023-01-22T05:16:19.135Z,4.90
2023-01-22T05:18:47.110Z,5.18
2023-01-22T05:21:14.420Z,5.21
2023-01-22T05:23:41.238Z,5.28
2023-01-22T05:26:08.286Z,4.93
2023-01-22T05:28:42.014Z,5.22
2023-01-22T05:31:29.064Z,5.04
2023-01-22T05:34:04.821Z,5.15
2023-01-22T05:36:31.977Z,4.68
2023-01-22T05:39:07.780Z,4.78
2023-01-22T05:41:35.245Z,4.90
2023-01-22T05:44:03.193Z,5.27
2023-01-22T05:46:30.121Z,5.43
2023-01-22T05:49:35.513Z,5.13
2023-01-22T05:52:03.017Z,5.00
2023-01-22T05:54:29.757Z,5.01
2023-01-22T05:56:58.104Z,5.03
2023-01-22T05:59:25.228Z,5.29
2023-01-22T06:01:58.054Z,5.24
2023-01-22T06:04:24.775Z,5.22
2023-01-22T06:06:51.948Z,4.98
2023-01-22T06:09:21.195Z,4.96
2023-01-22T06:11:48.271Z,5.29
2023-01-22T06:14:15.652Z,5.39
2023-01-22T06:16:42.467Z,5.22
2023-01-22T06:19:48.048Z,4.55
2023-01-22T06:22:19.220Z,4.59
2023-01-22T06:24:51.097Z,4.60
2023-01-22T06:27:19.142Z,4.78
2023-01-22T06:29:59.827Z,4.71
2023-01-22T06:32:27.197Z,4.63
2023-01-22T06:34:54.037Z,4.45
2023-01-22T06:37:22.991Z,4.85
2023-01-22T06:39:51.347Z,4.42
2023-01-22T06:42:37.798Z,5.22
2023-01-22T06:45:06.688Z,4.59
2023-01-22T06:47:34.232Z,4.50
2023-01-22T06:50:02.397Z,4.11
2023-01-22T06:52:29.146Z,4.18
2023-01-22T06:54:56.517Z,4.51
2023-01-22T06:57:25.108Z,4.66
2023-01-22T06:59:51.986Z,4.17
2023-01-22T07:02:19.684Z,4.56
2023-01-22T07:04:46.630Z,3.85
2023-01-22T07:07:14.893Z,3.81
2023-01-22T07:09:41.878Z,3.85
2023-01-22T07:12:08.848Z,4.12
2023-01-22T07:14:37.506Z,4.02
2023-01-22T07:17:04.872Z,4.12
2023-01-22T07:19:31.753Z,4.22
2023-01-22T07:21:59.007Z,4.15
2023-01-22T07:24:25.789Z,3.88
2023-01-22T07:26:52.605Z,4.31
2023-01-22T07:29:19.527Z,4.60
2023-01-22T07:31:49.643Z,4.51
2023-01-22T07:34:16.696Z,4.52
2023-01-22T07:36:43.655Z,4.23
2023-01-22T07:39:10.525Z,4.17
2023-01-22T07:41:37.396Z,4.68
2023-01-22T07:44:11.358Z,4.34
2023-01-22T07:46:39.304Z,4.68
2023-01-22T07:49:06.884Z,4.65
2023-01-22T07:51:33.827Z,4.76
2023-01-22T07:54:06.191Z,4.79
2023-01-22T07:56:33.114Z,4.51
2023-01-22T07:58:59.943Z,4.85
2023-01-22T08:01:28.954Z,5.12
2023-01-22T08:03:57.428Z,4.66
2023-01-22T08:06:24.614Z,4.91
2023-01-22T08:08:51.385Z,5.05
2023-01-22T08:11:18.955Z,5.12
2023-01-22T08:13:45.963Z,5.01
2023-01-22T08:16:13.407Z,5.14
2023-01-22T08:18:40.366Z,5.21
2023-01-22T08:21:07.248Z,5.15
2023-01-22T08:23:34.313Z,5.15
2023-01-22T08:26:03.388Z,4.70
2023-01-22T08:28:31.386Z,5.16
2023-01-22T08:31:00.104Z,5.13
2023-01-22T08:33:27.808Z,5.04
2023-01-22T08:35:54.601Z,5.16
2023-01-22T08:38:21.397Z,4.99
2023-01-22T08:40:52.446Z,5.15
2023-01-22T08:43:19.505Z,5.27
2023-01-22T08:45:48.749Z,5.00
2023-01-22T08:48:18.561Z,5.24
2023-01-22T08:50:45.764Z,5.11
2023-01-22T08:53:12.820Z,5.06
2023-01-22T08:55:39.672Z,4.97
2023-01-22T08:58:06.838Z,4.94
2023-01-22T09:00:33.757Z,4.93
2023-01-22T09:03:00.543Z,5.35
2023-01-22T09:05:28.464Z,5.36
2023-01-22T09:07:57.482Z,5.22
2023-01-22T09:10:24.683Z,4.68
2023-01-22T09:12:51.630Z,4.83
2023-01-22T09:15:18.569Z,4.90
2023-01-22T09:17:45.575Z,5.17
2023-01-22T09:20:12.442Z,5.25
2023-01-22T09:22:39.230Z,5.07
2023-01-22T09:25:06.763Z,4.86
2023-01-22T09:27:33.622Z,5.18
2023-01-22T09:30:02.699Z,4.96
2023-01-22T09:32:30.787Z,5.11
2023-01-22T09:35:04.219Z,4.73
2023-01-22T09:37:31.321Z,5.11
2023-01-22T09:39:58.236Z,5.01
2023-01-22T09:42:43.776Z,5.41
2023-01-22T09:45:12.196Z,5.35
2023-01-22T09:47:47.667Z,5.37
2023-01-22T09:50:25.608Z,5.10
2023-01-22T09:52:54.139Z,5.03
2023-01-22T09:55:23.735Z,5.20
2023-01-22T09:57:53.121Z,5.39
2023-01-22T10:00:41.022Z,5.37
2023-01-22T10:03:24.543Z,4.97
2023-01-22T10:05:56.236Z,5.28
2023-01-22T10:08:34.829Z,5.50
2023-01-22T10:11:03.093Z,5.14
2023-01-22T10:13:38.313Z,5.37
2023-01-22T10:16:06.082Z,5.01
2023-01-22T10:18:43.891Z,5.21
2023-01-22T10:21:32.028Z,5.10
2023-01-22T10:23:59.702Z,5.42
2023-01-22T10:26:40.022Z,5.24
2023-01-22T10:29:29.796Z,5.43
2023-01-22T10:31:59.102Z,5.55
2023-01-22T10:34:33.218Z,5.09
2023-01-22T10:37:19.716Z,5.18
2023-01-22T10:39:47.795Z,5.21
2023-01-22T10:42:20.489Z,5.40
2023-01-22T10:44:47.948Z,5.20
2023-01-22T10:47:27.477Z,5.17
2023-01-22T10:50:14.408Z,5.46
2023-01-22T10:52:51.037Z,5.45
2023-01-22T10:55:21.907Z,5.17
2023-01-22T10:57:55.302Z,5.25
2023-01-22T11:00:28.144Z,5.04
2023-01-22T11:02:55.173Z,5.42
2023-01-22T11:05:24.304Z,5.80
2023-01-22T11:07:53.843Z,5.54
2023-01-22T11:10:27.074Z,5.50
2023-01-22T11:13:50.041Z,5.68
2023-01-22T11:16:22.947Z,5.64
2023-01-22T11:19:07.405Z,5.99
2023-01-22T11:21:38.269Z,5.46
2023-01-22T11:24:16.260Z,5.75
2023-01-22T11:27:19.652Z,5.80
2023-01-22T11:29:49.480Z,5.87
2023-01-22T11:32:51.743Z,5.70
2023-01-22T11:35:23.817Z,5.76
2023-01-22T11:38:19.524Z,5.98
2023-01-22T11:41:03.486Z,5.78
2023-01-22T11:43:56.020Z,5.44
2023-01-22T11:47:01.576Z,5.60
2023-01-22T11:49:51.050Z,5.50
2023-01-22T11:52:34.259Z,5.72
2023-01-22T11:55:39.989Z,5.62
2023-01-22T11:58:52.053Z,5.56
2023-01-22T12:01:32.131Z,5.61
2023-01-22T12:04:20.559Z,5.74
2023-01-22T12:07:24.318Z,5.87
2023-01-22T12:09:57.263Z,5.85
2023-01-22T12:12:45.798Z,5.62
2023-01-22T12:15:34.501Z,5.68
2023-01-22T12:18:15.055Z,5.11
2023-01-22T12:20:45.098Z,5.48
2023-01-22T12:23:24.853Z,5.57
2023-01-22T12:26:09.153Z,5.71
2023-01-22T12:28:48.454Z,5.68
2023-01-22T12:31:24.797Z,5.84
2023-01-22T12:33:54.837Z,5.97
2023-01-22T12:45:33.370Z,5.87
2023-01-22T12:48:11.725Z,5.67
2023-01-22T12:50:51.930Z,5.84
2023-01-22T12:53:27.815Z,5.69
2023-01-22T12:56:05.151Z,5.70
2023-01-22T12:58:36.169Z,6.05
2023-01-22T13:01:09.167Z,5.74
2023-01-22T13:03:36.422Z,5.77
2023-01-22T13:06:05.097Z,5.84
2023-01-22T13:08:38.870Z,5.90
2023-01-22T13:11:13.094Z,6.00
2023-01-22T13:14:09.795Z,5.73
2023-01-22T13:16:42.261Z,5.67
2023-01-22T13:19:25.833Z,5.67
2023-01-22T13:22:00.737Z,5.85
2023-01-22T13:24:30.181Z,5.59
2023-01-22T13:27:02.069Z,5.80
2023-01-22T13:29:40.309Z,5.44
2023-01-22T13:32:18.474Z,5.50
2023-01-22T13:34:45.508Z,5.84
2023-01-22T13:37:26.299Z,5.39
2023-01-22T13:39:53.081Z,5.79
2023-01-22T13:42:20.317Z,5.91
2023-01-22T13:44:49.915Z,5.51
2023-01-22T13:47:34.031Z,5.47
2023-01-22T13:50:01.719Z,5.81
2023-01-22T13:52:33.597Z,5.90
2023-01-22T13:55:07.279Z,5.86
2023-01-22T13:57:34.132Z,5.83
2023-01-22T14:00:04.052Z,5.87
2023-01-22T14:02:35.132Z,5.61
2023-01-22T14:05:02.516Z,5.84
2023-01-22T14:07:33.902Z,5.69
2023-01-22T14:10:24.452Z,5.74
2023-01-22T14:13:09.518Z,5.49
2023-01-22T14:15:37.932Z,5.74
2023-01-22T14:18:18.423Z,5.81
2023-01-22T14:20:47.182Z,5.68
2023-01-22T14:23:15.135Z,5.93
2023-01-22T14:25:45.054Z,5.69
2023-01-22T14:28:11.881Z,5.81
2023-01-22T14:30:39.050Z,5.94
2023-01-22T14:33:06.688Z,6.03
2023-01-22T14:35:33.634Z,6.04
2023-01-22T14:38:00.457Z,6.23
2023-01-22T14:40:27.500Z,6.15
2023-01-22T14:42:54.298Z,6.17
2023-01-22T14:45:21.441Z,6.26
2023-01-22T14:47:52.909Z,6.14
2023-01-22T14:50:21.763Z,5.86
2023-01-22T14:52:49.305Z,5.89
2023-01-22T14:55:16.183Z,5.70
2023-01-22T14:57:43.259Z,5.89
2023-01-22T15:00:12.983Z,5.98
2023-01-22T15:02:41.679Z,6.11
2023-01-22T15:05:09.905Z,6.04
2023-01-22T15:07:37.496Z,6.07
2023-01-22T15:10:06.186Z,6.21
2023-01-22T15:12:33.403Z,6.04
2023-01-22T15:15:00.330Z,6.12
2023-01-22T15:17:27.322Z,6.12
2023-01-22T15:19:54.074Z,6.06
2023-01-22T15:22:20.944Z,6.05
2023-01-22T15:24:47.725Z,5.84
2023-01-22T15:27:18.562Z,5.85
2023-01-22T15:29:46.354Z,5.77
2023-01-22T15:32:13.430Z,6.12
2023-01-22T15:34:40.471Z,6.04
2023-01-22T15:37:07.510Z,5.95
2023-01-22T15:39:34.693Z,6.28
2023-01-22T15:42:01.545Z,6.30
2023-01-22T15:44:28.450Z,6.10
2023-01-22T15:46:57.299Z,5.93
2023-01-22T15:49:24.202Z,5.97
2023-01-22T15:51:51.124Z,6.16
2023-01-22T15:54:17.972Z,6.37
2023-01-22T15:56:45.029Z,6.16
2023-01-22T15:59:12.929Z,6.34
2023-01-22T16:01:39.885Z,5.79
2023-01-22T16:04:06.937Z,6.16
2023-01-22T16:06:34.738Z,6.22
2023-01-22T16:09:04.062Z,6.17
2023-01-22T16:11:31.343Z,6.35
2023-01-22T16:13:59.197Z,6.12
2023-01-22T16:16:30.479Z,6.26
2023-01-22T16:18:58.516Z,6.23
2023-01-22T16:21:26.427Z,6.20
2023-01-22T16:23:55.416Z,6.34
2023-01-22T16:26:28.398Z,6.29
2023-01-22T16:28:59.338Z,6.36
2023-01-22T16:31:30.654Z,6.36
2023-01-22T16:34:00.269Z,6.31
2023-01-22T16:36:32.607Z,6.34
2023-01-22T16:39:00.686Z,6.27
2023-01-22T16:41:29.382Z,6.29
2023-01-22T16:44:03.659Z,6.27
2023-01-22T16:46:31.624Z,6.30
2023-01-22T16:49:26.280Z,6.28
2023-01-22T16:51:56.419Z,6.35
2023-01-22T16:54:32.765Z,6.34
2023-01-22T16:57:01.660Z,6.38
2023-01-22T16:59:28.809Z,6.22
2023-01-22T17:01:58.764Z,6.37
2023-01-22T17:04:27.007Z,6.23
2023-01-22T17:06:55.663Z,6.26
2023-01-22T17:09:25.399Z,6.20
2023-01-22T17:11:54.081Z,6.22
2023-01-22T17:14:31.134Z,6.18
2023-01-22T17:17:00.878Z,6.28
2023-01-22T17:19:28.070Z,6.28
2023-01-22T17:21:57.918Z,6.06
2023-01-22T17:24:25.590Z,6.16
2023-01-22T17:26:58.014Z,6.04
2023-01-22T17:29:26.115Z,6.08
2023-01-22T17:31:52.977Z,5.84
2023-01-22T17:34:19.846Z,6.24
2023-01-22T17:36:46.688Z,5.89
2023-01-22T17:39:15.619Z,6.11
2023-01-22T17:41:43.436Z,6.22
2023-01-22T17:44:10.527Z,5.87
2023-01-22T17:46:38.746Z,6.20
2023-01-22T17:49:06.043Z,5.93
2023-01-22T17:51:34.662Z,6.11
2023-01-22T17:54:03.365Z,6.19
2023-01-22T17:56:35.135Z,6.09
2023-01-22T17:59:06.077Z,6.26
2023-01-22T18:01:35.301Z,5.90
2023-01-22T18:04:05.652Z,6.05
2023-01-22T18:06:33.034Z,6.19
2023-01-22T18:09:00.820Z,6.07
2023-01-22T18:11:29.698Z,5.96
2023-01-22T18:14:00.921Z,6.14
2023-01-22T18:16:29.549Z,5.80
2023-01-22T18:18:58.500Z,5.87
2023-01-22T18:21:25.342Z,6.17
2023-01-22T18:23:52.423Z,6.06
2023-01-22T18:26:22.960Z,6.11
2023-01-22T18:28:51.328Z,6.16
2023-01-22T18:31:22.221Z,6.06
2023-01-22T18:33:49.967Z,6.14
2023-01-22T18:36:19.836Z,6.19
2023-01-22T18:38:50.110Z,6.21
2023-01-22T18:41:25.163Z,6.12
2023-01-22T18:43:57.225Z,5.92
2023-01-22T18:46:26.348Z,6.09
2023-01-22T18:48:56.069Z,6.12
2023-01-22T18:51:23.782Z,6.14
2023-01-22T18:53:50.733Z,5.90
2023-01-22T18:56:17.961Z,6.15
2023-01-22T18:58:44.980Z,6.21
2023-01-22T19:01:20.635Z,6.37
2023-01-22T19:03:52.809Z,6.06
2023-01-22T19:06:22.897Z,6.25
2023-01-22T19:08:54.297Z,6.16
2023-01-22T19:11:21.157Z,6.20
2023-01-22T19:13:49.600Z,6.36
2023-01-22T19:16:18.946Z,6.45
2023-01-22T19:18:49.190Z,6.37
2023-01-22T19:21:18.907Z,6.43
2023-01-22T19:23:48.202Z,6.67
2023-01-22T19:26:30.711Z,6.50
2023-01-22T19:29:00.842Z,6.56
2023-01-22T19:31:39.510Z,6.31
2023-01-22T19:34:09.159Z,6.43
2023-01-22T19:36:38.748Z,6.48
2023-01-22T19:39:11.603Z,6.68
2023-01-22T19:41:40.119Z,6.65
2023-01-22T19:44:07.814Z,6.69
2023-01-22T19:46:35.010Z,6.71
2023-01-22T19:49:02.166Z,6.78
2023-01-22T19:51:30.972Z,6.92
2023-01-22T19:54:02.649Z,6.65
2023-01-22T19:56:33.085Z,6.51
2023-01-22T19:59:03.192Z,6.71
2023-01-22T20:01:30.118Z,6.75
2023-01-22T20:03:58.317Z,6.76
2023-01-22T20:06:25.337Z,6.36
2023-01-22T20:08:52.764Z,6.67
2023-01-22T20:11:19.589Z,6.82
2023-01-22T20:13:47.834Z,6.71
2023-01-22T20:16:23.077Z,6.45
2023-01-22T20:18:50.953Z,6.62
2023-01-22T20:21:19.660Z,6.83
2023-01-22T20:23:49.535Z,6.91
2023-01-22T20:26:18.190Z,6.99
2023-01-22T20:28:45.576Z,7.03
2023-01-22T20:31:15.288Z,6.93
2023-01-22T20:33:42.964Z,6.73
2023-01-22T20:36:16.515Z,6.71
2023-01-22T20:38:46.109Z,6.54
2023-01-22T20:41:13.744Z,6.70
2023-01-22T20:43:42.081Z,6.20
2023-01-22T20:46:12.559Z,6.48
2023-01-22T20:48:39.523Z,6.50
2023-01-22T20:51:15.868Z,6.42
2023-01-22T20:53:43.745Z,6.30
2023-01-22T20:56:13.139Z,6.29
2023-01-22T20:58:40.226Z,6.22
2023-01-22T21:01:10.393Z,6.40
2023-01-22T21:03:37.504Z,5.71
2023-01-22T21:06:13.551Z,4.91
2023-01-22T21:08:41.461Z,5.66
2023-01-22T21:11:11.680Z,6.17
2023-01-22T21:13:38.695Z,5.65
2023-01-22T21:16:13.805Z,5.76
2023-01-22T21:18:43.706Z,5.43
2023-01-22T21:21:12.878Z,5.41
2023-01-22T21:23:40.128Z,5.74
2023-01-22T21:26:09.229Z,5.86
2023-01-22T21:28:36.725Z,5.38
2023-01-22T21:31:14.114Z,5.52
2023-01-22T21:33:41.629Z,5.45
2023-01-22T21:36:09.178Z,5.84
2023-01-22T21:38:36.337Z,5.56
2023-01-22T21:41:07.479Z,5.60
2023-01-22T21:43:53.435Z,5.89
2023-01-22T21:46:25.108Z,5.87
2023-01-22T21:49:01.230Z,6.18
2023-01-22T21:51:33.272Z,6.37
2023-01-22T21:54:00.327Z,6.35
2023-01-22T21:56:27.227Z,6.49
2023-01-22T21:58:55.991Z,6.74
2023-01-22T22:01:25.736Z,6.32
2023-01-22T22:03:52.731Z,6.69
2023-01-22T22:06:19.492Z,6.81
2023-01-22T22:08:46.331Z,6.82
2023-01-22T22:11:13.823Z,6.86
2023-01-22T22:13:41.350Z,6.89
2023-01-22T22:16:09.962Z,6.82
2023-01-22T22:18:37.324Z,6.67
2023-01-22T22:21:06.717Z,6.79
2023-01-22T22:23:35.270Z,6.85
2023-01-22T22:26:03.179Z,6.80
2023-01-22T22:28:30.571Z,6.90
2023-01-22T22:31:12.092Z,6.76
2023-01-22T22:33:44.397Z,6.87
2023-01-22T22:36:12.736Z,6.90
2023-01-22T22:38:39.624Z,6.85
2023-01-22T22:41:08.973Z,6.89
2023-01-22T22:43:38.312Z,7.03
2023-01-22T22:46:07.458Z,6.95
2023-01-22T22:48:34.564Z,7.10
2023-01-22T22:51:01.736Z,7.17
2023-01-22T22:53:28.759Z,7.09
2023-01-22T22:55:55.989Z,7.08
2023-01-22T22:58:22.678Z,7.01
2023-01-22T23:00:49.509Z,7.10
2023-01-22T23:03:16.293Z,7.12
2023-01-22T23:05:43.235Z,7.17
2023-01-22T23:08:10.000Z,7.19
2023-01-22T23:10:38.044Z,7.14
2023-01-22T23:13:06.084Z,7.12
2023-01-22T23:15:33.444Z,7.20
2023-01-22T23:18:00.543Z,7.17
2023-01-22T23:20:28.005Z,6.98
2023-01-22T23:22:58.454Z,7.00
2023-01-22T23:25:25.668Z,7.07
2023-01-22T23:27:52.495Z,7.09
2023-01-22T23:30:19.864Z,7.12
2023-01-22T23:32:46.782Z,7.06
2023-01-22T23:35:13.620Z,7.02
2023-01-22T23:37:40.434Z,6.89
2023-01-22T23:40:07.849Z,6.97
2023-01-22T23:42:34.671Z,7.04
2023-01-22T23:45:02.358Z,7.04
2023-01-22T23:47:31.012Z,7.09
2023-01-22T23:49:58.093Z,7.11
2023-01-22T23:52:24.924Z,6.68
